sensor_id;sensor_type;location;lat;lon;timestamp;P1;durP1;ratioP1;P2;durP2;ratioP2
58015;SDS011;43809;52.110;20.964;2024-03-17T00:01:12;9.95;;;2.80;;
58015;SDS011;43809;52.110;20.964;2024-03-17T00:08:59;8.63;;;2.70;;
58015;SDS011;43809;52.110;20.964;2024-03-17T00:11:02;8.35;;;2.60;;
58015;SDS011;43809;52.110;20.964;2024-03-17T00:13:03;8.65;;;2.80;;
58015;SDS011;43809;52.110;20.964;2024-03-17T00:15:04;4.72;;;2.67;;
58015;SDS011;43809;52.110;20.964;2024-03-17T00:17:05;10.30;;;2.72;;
58015;SDS011;43809;52.110;20.964;2024-03-17T00:19:06;9.93;;;2.80;;
58015;SDS011;43809;52.110;20.964;2024-03-17T00:21:06;7.65;;;2.80;;
58015;SDS011;43809;52.110;20.964;2024-03-17T00:26:22;7.80;;;2.10;;
58015;SDS011;43809;52.110;20.964;2024-03-17T00:28:23;8.95;;;2.30;;
58015;SDS011;43809;52.110;20.964;2024-03-17T00:30:25;8.65;;;2.40;;
58015;SDS011;43809;52.110;20.964;2024-03-17T00:32:26;7.07;;;2.25;;
58015;SDS011;43809;52.110;20.964;2024-03-17T00:34:26;9.60;;;2.47;;
58015;SDS011;43809;52.110;20.964;2024-03-17T00:36:27;9.40;;;2.20;;
58015;SDS011;43809;52.110;20.964;2024-03-17T00:38:28;8.98;;;2.42;;
58015;SDS011;43809;52.110;20.964;2024-03-17T00:40:29;10.98;;;2.78;;
58015;SDS011;43809;52.110;20.964;2024-03-17T00:42:30;8.13;;;2.40;;
58015;SDS011;43809;52.110;20.964;2024-03-17T00:44:31;8.32;;;2.53;;
58015;SDS011;43809;52.110;20.964;2024-03-17T00:46:31;7.40;;;2.33;;
58015;SDS011;43809;52.110;20.964;2024-03-17T00:48:33;7.73;;;2.33;;
58015;SDS011;43809;52.110;20.964;2024-03-17T00:56:33;7.82;;;2.28;;
58015;SDS011;43809;52.110;20.964;2024-03-17T00:58:34;7.07;;;2.20;;
58015;SDS011;43809;52.110;20.964;2024-03-17T01:00:35;6.88;;;2.30;;
58015;SDS011;43809;52.110;20.964;2024-03-17T01:02:36;5.82;;;2.08;;
58015;SDS011;43809;52.110;20.964;2024-03-17T01:04:36;6.82;;;2.40;;
58015;SDS011;43809;52.110;20.964;2024-03-17T01:06:37;7.97;;;2.30;;
58015;SDS011;43809;52.110;20.964;2024-03-17T01:15:10;8.48;;;2.53;;
58015;SDS011;43809;52.110;20.964;2024-03-17T01:17:11;10.30;;;2.30;;
58015;SDS011;43809;52.110;20.964;2024-03-17T01:19:12;9.07;;;2.55;;
58015;SDS011;43809;52.110;20.964;2024-03-17T01:21:13;7.30;;;2.28;;
58015;SDS011;43809;52.110;20.964;2024-03-17T01:26:24;7.25;;;2.42;;
58015;SDS011;43809;52.110;20.964;2024-03-17T01:28:25;7.00;;;2.45;;
58015;SDS011;43809;52.110;20.964;2024-03-17T01:30:27;6.45;;;2.30;;
58015;SDS011;43809;52.110;20.964;2024-03-17T01:32:28;10.48;;;2.70;;
58015;SDS011;43809;52.110;20.964;2024-03-17T01:34:28;10.40;;;2.80;;
58015;SDS011;43809;52.110;20.964;2024-03-17T01:36:29;7.93;;;2.63;;
58015;SDS011;43809;52.110;20.964;2024-03-17T01:41:10;10.77;;;2.72;;
58015;SDS011;43809;52.110;20.964;2024-03-17T01:43:10;10.23;;;2.92;;
58015;SDS011;43809;52.110;20.964;2024-03-17T01:51:00;9.88;;;3.15;;
58015;SDS011;43809;52.110;20.964;2024-03-17T01:53:02;7.57;;;2.50;;
58015;SDS011;43809;52.110;20.964;2024-03-17T01:55:05;8.43;;;2.60;;
58015;SDS011;43809;52.110;20.964;2024-03-17T01:57:06;8.10;;;2.60;;
58015;SDS011;43809;52.110;20.964;2024-03-17T01:59:08;7.82;;;2.60;;
58015;SDS011;43809;52.110;20.964;2024-03-17T02:03:10;7.30;;;2.40;;
58015;SDS011;43809;52.110;20.964;2024-03-17T02:05:12;8.10;;;2.53;;
58015;SDS011;43809;52.110;20.964;2024-03-17T02:07:14;7.72;;;2.35;;
58015;SDS011;43809;52.110;20.964;2024-03-17T02:09:15;7.80;;;2.40;;
58015;SDS011;43809;52.110;20.964;2024-03-17T02:11:31;8.43;;;2.50;;
58015;SDS011;43809;52.110;20.964;2024-03-17T02:13:32;8.10;;;2.42;;
58015;SDS011;43809;52.110;20.964;2024-03-17T02:15:34;10.82;;;3.22;;
58015;SDS011;43809;52.110;20.964;2024-03-17T02:17:34;9.38;;;3.08;;
58015;SDS011;43809;52.110;20.964;2024-03-17T02:19:35;9.65;;;2.88;;
58015;SDS011;43809;52.110;20.964;2024-03-17T02:21:36;9.05;;;2.53;;
58015;SDS011;43809;52.110;20.964;2024-03-17T02:23:38;9.93;;;3.33;;
58015;SDS011;43809;52.110;20.964;2024-03-17T02:28:49;7.63;;;2.80;;
58015;SDS011;43809;52.110;20.964;2024-03-17T02:30:50;9.07;;;2.88;;
58015;SDS011;43809;52.110;20.964;2024-03-17T02:32:54;8.63;;;2.50;;
58015;SDS011;43809;52.110;20.964;2024-03-17T02:34:55;8.90;;;2.53;;
58015;SDS011;43809;52.110;20.964;2024-03-17T02:36:57;10.82;;;2.90;;
58015;SDS011;43809;52.110;20.964;2024-03-17T02:38:57;8.60;;;2.75;;
58015;SDS011;43809;52.110;20.964;2024-03-17T02:41:17;7.80;;;2.70;;
58015;SDS011;43809;52.110;20.964;2024-03-17T02:43:17;9.50;;;2.92;;
58015;SDS011;43809;52.110;20.964;2024-03-17T02:45:18;10.85;;;2.60;;
58015;SDS011;43809;52.110;20.964;2024-03-17T02:47:20;7.80;;;3.05;;
58015;SDS011;43809;52.110;20.964;2024-03-17T02:49:21;9.23;;;2.60;;
58015;SDS011;43809;52.110;20.964;2024-03-17T02:51:22;9.52;;;2.58;;
58015;SDS011;43809;52.110;20.964;2024-03-17T02:56:02;9.50;;;2.75;;
58015;SDS011;43809;52.110;20.964;2024-03-17T02:58:02;8.15;;;2.80;;
58015;SDS011;43809;52.110;20.964;2024-03-17T03:00:03;8.15;;;2.20;;
58015;SDS011;43809;52.110;20.964;2024-03-17T03:02:05;10.57;;;2.72;;
58015;SDS011;43809;52.110;20.964;2024-03-17T03:04:06;9.65;;;2.78;;
58015;SDS011;43809;52.110;20.964;2024-03-17T03:06:06;7.72;;;2.85;;
58015;SDS011;43809;52.110;20.964;2024-03-17T03:08:09;10.13;;;2.83;;
58015;SDS011;43809;52.110;20.964;2024-03-17T03:10:10;10.95;;;2.90;;
58015;SDS011;43809;52.110;20.964;2024-03-17T03:12:11;11.18;;;3.20;;
58015;SDS011;43809;52.110;20.964;2024-03-17T03:14:11;7.95;;;2.95;;
58015;SDS011;43809;52.110;20.964;2024-03-17T03:18:27;10.10;;;3.20;;
58015;SDS011;43809;52.110;20.964;2024-03-17T03:20:27;12.90;;;2.97;;
58015;SDS011;43809;52.110;20.964;2024-03-17T03:22:28;10.30;;;3.00;;
58015;SDS011;43809;52.110;20.964;2024-03-17T03:24:29;6.97;;;2.67;;
58015;SDS011;43809;52.110;20.964;2024-03-17T03:26:30;7.78;;;2.45;;
58015;SDS011;43809;52.110;20.964;2024-03-17T03:28:31;10.90;;;3.17;;
58015;SDS011;43809;52.110;20.964;2024-03-17T03:30:39;7.82;;;2.92;;
58015;SDS011;43809;52.110;20.964;2024-03-17T03:32:40;6.57;;;2.33;;
58015;SDS011;43809;52.110;20.964;2024-03-17T03:34:41;8.90;;;2.58;;
58015;SDS011;43809;52.110;20.964;2024-03-17T03:36:41;7.38;;;2.97;;
58015;SDS011;43809;52.110;20.964;2024-03-17T03:38:42;8.93;;;2.65;;
58015;SDS011;43809;52.110;20.964;2024-03-17T03:40:43;5.40;;;2.22;;
58015;SDS011;43809;52.110;20.964;2024-03-17T03:42:44;6.07;;;2.42;;
58015;SDS011;43809;52.110;20.964;2024-03-17T03:44:46;6.45;;;2.97;;
58015;SDS011;43809;52.110;20.964;2024-03-17T03:46:49;9.10;;;2.78;;
58015;SDS011;43809;52.110;20.964;2024-03-17T03:48:50;7.55;;;2.70;;
58015;SDS011;43809;52.110;20.964;2024-03-17T03:50:50;6.95;;;2.63;;
58015;SDS011;43809;52.110;20.964;2024-03-17T03:56:05;13.13;;;4.15;;
58015;SDS011;43809;52.110;20.964;2024-03-17T03:58:10;9.00;;;3.83;;
58015;SDS011;43809;52.110;20.964;2024-03-17T04:06:05;10.30;;;4.40;;
58015;SDS011;43809;52.110;20.964;2024-03-17T04:08:06;9.20;;;3.88;;
58015;SDS011;43809;52.110;20.964;2024-03-17T04:10:06;10.32;;;3.63;;
58015;SDS011;43809;52.110;20.964;2024-03-17T04:12:07;9.07;;;4.03;;
58015;SDS011;43809;52.110;20.964;2024-03-17T04:14:08;6.75;;;3.13;;
58015;SDS011;43809;52.110;20.964;2024-03-17T04:16:08;8.10;;;2.97;;
58015;SDS011;43809;52.110;20.964;2024-03-17T04:18:10;7.03;;;3.20;;
58015;SDS011;43809;52.110;20.964;2024-03-17T04:20:18;8.82;;;3.35;;
58015;SDS011;43809;52.110;20.964;2024-03-17T04:22:19;4.63;;;2.80;;
58015;SDS011;43809;52.110;20.964;2024-03-17T04:24:21;4.90;;;2.67;;
58015;SDS011;43809;52.110;20.964;2024-03-17T04:26:22;6.85;;;2.90;;
58015;SDS011;43809;52.110;20.964;2024-03-17T04:28:23;8.18;;;3.03;;
58015;SDS011;43809;52.110;20.964;2024-03-17T04:30:41;6.93;;;2.72;;
58015;SDS011;43809;52.110;20.964;2024-03-17T04:32:43;6.47;;;3.20;;
58015;SDS011;43809;52.110;20.964;2024-03-17T04:34:43;8.05;;;3.00;;
58015;SDS011;43809;52.110;20.964;2024-03-17T04:36:44;7.47;;;3.00;;
58015;SDS011;43809;52.110;20.964;2024-03-17T04:38:45;7.10;;;3.03;;
58015;SDS011;43809;52.110;20.964;2024-03-17T04:40:45;6.80;;;2.97;;
58015;SDS011;43809;52.110;20.964;2024-03-17T04:42:46;7.25;;;2.80;;
58015;SDS011;43809;52.110;20.964;2024-03-17T04:44:47;5.70;;;2.65;;
58015;SDS011;43809;52.110;20.964;2024-03-17T04:46:48;7.13;;;2.95;;
58015;SDS011;43809;52.110;20.964;2024-03-17T04:48:48;6.45;;;2.65;;
58015;SDS011;43809;52.110;20.964;2024-03-17T04:50:49;5.32;;;2.67;;
58015;SDS011;43809;52.110;20.964;2024-03-17T04:52:50;5.47;;;2.85;;
58015;SDS011;43809;52.110;20.964;2024-03-17T04:54:51;6.50;;;2.80;;
58015;SDS011;43809;52.110;20.964;2024-03-17T04:56:51;5.45;;;2.53;;
58015;SDS011;43809;52.110;20.964;2024-03-17T04:58:52;4.53;;;2.40;;
58015;SDS011;43809;52.110;20.964;2024-03-17T05:07:20;5.22;;;2.35;;
58015;SDS011;43809;52.110;20.964;2024-03-17T05:09:21;6.03;;;2.53;;
58015;SDS011;43809;52.110;20.964;2024-03-17T05:11:21;7.65;;;2.95;;
58015;SDS011;43809;52.110;20.964;2024-03-17T05:13:27;4.40;;;2.50;;
58015;SDS011;43809;52.110;20.964;2024-03-17T05:15:28;4.82;;;2.30;;
58015;SDS011;43809;52.110;20.964;2024-03-17T05:17:29;6.50;;;2.80;;
58015;SDS011;43809;52.110;20.964;2024-03-17T05:19:29;6.25;;;3.30;;
58015;SDS011;43809;52.110;20.964;2024-03-17T05:21:30;7.80;;;2.80;;
58015;SDS011;43809;52.110;20.964;2024-03-17T05:23:31;6.07;;;3.10;;
58015;SDS011;43809;52.110;20.964;2024-03-17T05:25:32;7.45;;;3.70;;
58015;SDS011;43809;52.110;20.964;2024-03-17T05:27:37;9.45;;;4.13;;
58015;SDS011;43809;52.110;20.964;2024-03-17T05:29:37;8.00;;;3.63;;
58015;SDS011;43809;52.110;20.964;2024-03-17T05:31:38;11.77;;;4.20;;
58015;SDS011;43809;52.110;20.964;2024-03-17T05:33:44;8.43;;;3.53;;
58015;SDS011;43809;52.110;20.964;2024-03-17T05:35:48;11.90;;;5.03;;
58015;SDS011;43809;52.110;20.964;2024-03-17T05:37:49;11.23;;;4.60;;
58015;SDS011;43809;52.110;20.964;2024-03-17T05:39:50;9.20;;;4.22;;
58015;SDS011;43809;52.110;20.964;2024-03-17T05:41:51;10.73;;;4.97;;
58015;SDS011;43809;52.110;20.964;2024-03-17T05:43:52;11.38;;;4.93;;
58015;SDS011;43809;52.110;20.964;2024-03-17T05:45:58;11.02;;;4.65;;
58015;SDS011;43809;52.110;20.964;2024-03-17T05:47:59;8.05;;;4.00;;
58015;SDS011;43809;52.110;20.964;2024-03-17T05:49:59;10.18;;;4.75;;
58015;SDS011;43809;52.110;20.964;2024-03-17T05:52:00;10.80;;;4.18;;
58015;SDS011;43809;52.110;20.964;2024-03-17T05:54:01;8.45;;;4.20;;
58015;SDS011;43809;52.110;20.964;2024-03-17T05:56:02;8.10;;;4.03;;
58015;SDS011;43809;52.110;20.964;2024-03-17T05:58:03;11.68;;;4.75;;
58015;SDS011;43809;52.110;20.964;2024-03-17T06:00:19;10.40;;;4.65;;
58015;SDS011;43809;52.110;20.964;2024-03-17T06:02:21;8.93;;;4.13;;
58015;SDS011;43809;52.110;20.964;2024-03-17T06:04:22;8.38;;;4.10;;
58015;SDS011;43809;52.110;20.964;2024-03-17T06:06:23;7.93;;;4.15;;
58015;SDS011;43809;52.110;20.964;2024-03-17T06:11:39;10.32;;;3.88;;
58015;SDS011;43809;52.110;20.964;2024-03-17T06:13:40;6.97;;;4.25;;
58015;SDS011;43809;52.110;20.964;2024-03-17T06:15:41;10.00;;;4.30;;
58015;SDS011;43809;52.110;20.964;2024-03-17T06:17:42;9.60;;;4.50;;
58015;SDS011;43809;52.110;20.964;2024-03-17T06:19:43;9.52;;;4.50;;
58015;SDS011;43809;52.110;20.964;2024-03-17T06:21:43;8.60;;;4.20;;
58015;SDS011;43809;52.110;20.964;2024-03-17T06:23:44;9.75;;;4.43;;
58015;SDS011;43809;52.110;20.964;2024-03-17T06:25:46;7.53;;;3.42;;
58015;SDS011;43809;52.110;20.964;2024-03-17T06:38:02;6.00;;;2.83;;
58015;SDS011;43809;52.110;20.964;2024-03-17T06:40:02;7.15;;;3.10;;
58015;SDS011;43809;52.110;20.964;2024-03-17T06:42:03;5.90;;;2.80;;
58015;SDS011;43809;52.110;20.964;2024-03-17T06:44:04;6.13;;;2.55;;
58015;SDS011;43809;52.110;20.964;2024-03-17T06:46:07;8.52;;;3.03;;
58015;SDS011;43809;52.110;20.964;2024-03-17T06:48:08;6.30;;;2.58;;
58015;SDS011;43809;52.110;20.964;2024-03-17T06:50:09;7.53;;;2.90;;
58015;SDS011;43809;52.110;20.964;2024-03-17T06:52:12;6.65;;;2.65;;
58015;SDS011;43809;52.110;20.964;2024-03-17T06:54:13;5.55;;;2.40;;
58015;SDS011;43809;52.110;20.964;2024-03-17T06:56:13;6.05;;;2.30;;
58015;SDS011;43809;52.110;20.964;2024-03-17T06:58:14;8.00;;;2.58;;
58015;SDS011;43809;52.110;20.964;2024-03-17T07:00:15;7.43;;;2.88;;
58015;SDS011;43809;52.110;20.964;2024-03-17T07:02:17;7.13;;;2.57;;
58015;SDS011;43809;52.110;20.964;2024-03-17T07:04:19;8.80;;;2.13;;
58015;SDS011;43809;52.110;20.964;2024-03-17T07:06:21;6.57;;;2.40;;
58015;SDS011;43809;52.110;20.964;2024-03-17T07:08:22;5.32;;;2.35;;
58015;SDS011;43809;52.110;20.964;2024-03-17T07:10:23;7.30;;;2.47;;
58015;SDS011;43809;52.110;20.964;2024-03-17T07:12:23;7.82;;;2.42;;
58015;SDS011;43809;52.110;20.964;2024-03-17T07:14:24;6.75;;;2.55;;
58015;SDS011;43809;52.110;20.964;2024-03-17T07:16:26;7.57;;;2.55;;
58015;SDS011;43809;52.110;20.964;2024-03-17T07:18:28;7.63;;;2.53;;
58015;SDS011;43809;52.110;20.964;2024-03-17T07:20:30;7.07;;;2.40;;
58015;SDS011;43809;52.110;20.964;2024-03-17T07:22:32;9.13;;;2.80;;
58015;SDS011;43809;52.110;20.964;2024-03-17T07:24:33;9.43;;;3.00;;
58015;SDS011;43809;52.110;20.964;2024-03-17T07:26:34;6.32;;;2.65;;
58015;SDS011;43809;52.110;20.964;2024-03-17T07:28:35;7.78;;;2.90;;
58015;SDS011;43809;52.110;20.964;2024-03-17T07:33:09;7.90;;;2.72;;
58015;SDS011;43809;52.110;20.964;2024-03-17T07:35:12;6.40;;;2.58;;
58015;SDS011;43809;52.110;20.964;2024-03-17T07:37:14;5.47;;;2.75;;
58015;SDS011;43809;52.110;20.964;2024-03-17T07:39:15;9.07;;;2.70;;
58015;SDS011;43809;52.110;20.964;2024-03-17T07:41:16;6.67;;;2.50;;
58015;SDS011;43809;52.110;20.964;2024-03-17T07:43:17;7.35;;;2.70;;
58015;SDS011;43809;52.110;20.964;2024-03-17T07:45:18;8.43;;;2.50;;
58015;SDS011;43809;52.110;20.964;2024-03-17T07:47:19;4.40;;;2.47;;
58015;SDS011;43809;52.110;20.964;2024-03-17T07:49:19;6.15;;;2.40;;
58015;SDS011;43809;52.110;20.964;2024-03-17T07:51:20;5.35;;;2.38;;
58015;SDS011;43809;52.110;20.964;2024-03-17T07:55:39;8.10;;;2.67;;
58015;SDS011;43809;52.110;20.964;2024-03-17T07:59:59;9.77;;;3.50;;
58015;SDS011;43809;52.110;20.964;2024-03-17T08:02:00;7.78;;;3.30;;
58015;SDS011;43809;52.110;20.964;2024-03-17T08:06:22;6.28;;;2.85;;
58015;SDS011;43809;52.110;20.964;2024-03-17T08:08:22;7.63;;;2.88;;
58015;SDS011;43809;52.110;20.964;2024-03-17T08:17:04;8.35;;;3.80;;
58015;SDS011;43809;52.110;20.964;2024-03-17T08:19:06;6.63;;;3.25;;
58015;SDS011;43809;52.110;20.964;2024-03-17T08:21:08;10.48;;;3.55;;
58015;SDS011;43809;52.110;20.964;2024-03-17T08:23:09;6.95;;;3.05;;
58015;SDS011;43809;52.110;20.964;2024-03-17T08:28:30;9.60;;;3.30;;
58015;SDS011;43809;52.110;20.964;2024-03-17T08:30:31;6.78;;;3.28;;
58015;SDS011;43809;52.110;20.964;2024-03-17T08:32:32;6.43;;;3.20;;
58015;SDS011;43809;52.110;20.964;2024-03-17T08:34:33;8.85;;;3.22;;
58015;SDS011;43809;52.110;20.964;2024-03-17T08:36:34;4.63;;;2.72;;
58015;SDS011;43809;52.110;20.964;2024-03-17T08:38:35;7.88;;;3.50;;
58015;SDS011;43809;52.110;20.964;2024-03-17T08:49:37;9.75;;;3.40;;
58015;SDS011;43809;52.110;20.964;2024-03-17T08:51:38;7.10;;;3.53;;
58015;SDS011;43809;52.110;20.964;2024-03-17T08:53:39;6.93;;;3.20;;
58015;SDS011;43809;52.110;20.964;2024-03-17T08:55:40;7.25;;;3.67;;
58015;SDS011;43809;52.110;20.964;2024-03-17T08:57:40;7.90;;;3.83;;
58015;SDS011;43809;52.110;20.964;2024-03-17T08:59:42;8.65;;;3.72;;
58015;SDS011;43809;52.110;20.964;2024-03-17T09:01:42;6.05;;;3.60;;
58015;SDS011;43809;52.110;20.964;2024-03-17T09:03:43;6.97;;;4.15;;
58015;SDS011;43809;52.110;20.964;2024-03-17T09:05:45;7.43;;;3.75;;
58015;SDS011;43809;52.110;20.964;2024-03-17T09:07:46;7.27;;;3.40;;
58015;SDS011;43809;52.110;20.964;2024-03-17T09:09:47;7.95;;;3.60;;
58015;SDS011;43809;52.110;20.964;2024-03-17T09:11:48;6.55;;;3.38;;
58015;SDS011;43809;52.110;20.964;2024-03-17T09:13:48;8.15;;;3.65;;
58015;SDS011;43809;52.110;20.964;2024-03-17T09:15:59;9.07;;;3.88;;
58015;SDS011;43809;52.110;20.964;2024-03-17T09:18:15;9.32;;;3.60;;
58015;SDS011;43809;52.110;20.964;2024-03-17T09:20:16;9.80;;;3.72;;
58015;SDS011;43809;52.110;20.964;2024-03-17T09:22:17;7.78;;;3.53;;
58015;SDS011;43809;52.110;20.964;2024-03-17T09:24:18;9.73;;;3.88;;
58015;SDS011;43809;52.110;20.964;2024-03-17T09:29:29;8.40;;;3.45;;
58015;SDS011;43809;52.110;20.964;2024-03-17T09:31:30;6.95;;;3.45;;
58015;SDS011;43809;52.110;20.964;2024-03-17T09:33:34;7.47;;;3.80;;
58015;SDS011;43809;52.110;20.964;2024-03-17T09:35:35;6.67;;;2.83;;
58015;SDS011;43809;52.110;20.964;2024-03-17T09:37:54;3.45;;;2.30;;
58015;SDS011;43809;52.110;20.964;2024-03-17T09:39:55;4.60;;;2.40;;
58015;SDS011;43809;52.110;20.964;2024-03-17T09:41:57;4.32;;;2.67;;
58015;SDS011;43809;52.110;20.964;2024-03-17T09:43:59;6.32;;;3.22;;
58015;SDS011;43809;52.110;20.964;2024-03-17T09:46:01;7.90;;;4.32;;
58015;SDS011;43809;52.110;20.964;2024-03-17T09:48:02;6.72;;;3.40;;
58015;SDS011;43809;52.110;20.964;2024-03-17T09:52:42;11.60;;;4.40;;
58015;SDS011;43809;52.110;20.964;2024-03-17T09:54:43;8.55;;;3.50;;
58015;SDS011;43809;52.110;20.964;2024-03-17T09:56:44;6.93;;;3.10;;
58015;SDS011;43809;52.110;20.964;2024-03-17T09:58:45;7.50;;;3.33;;
58015;SDS011;43809;52.110;20.964;2024-03-17T10:00:46;7.07;;;3.40;;
58015;SDS011;43809;52.110;20.964;2024-03-17T10:02:47;6.75;;;3.25;;
58015;SDS011;43809;52.110;20.964;2024-03-17T10:04:48;9.15;;;3.22;;
58015;SDS011;43809;52.110;20.964;2024-03-17T10:06:49;7.72;;;3.00;;
58015;SDS011;43809;52.110;20.964;2024-03-17T10:08:52;6.70;;;2.97;;
58015;SDS011;43809;52.110;20.964;2024-03-17T10:10:53;4.45;;;2.85;;
58015;SDS011;43809;52.110;20.964;2024-03-17T10:15:19;6.53;;;2.97;;
58015;SDS011;43809;52.110;20.964;2024-03-17T10:17:28;8.05;;;3.35;;
58015;SDS011;43809;52.110;20.964;2024-03-17T10:19:29;6.18;;;3.30;;
58015;SDS011;43809;52.110;20.964;2024-03-17T10:21:30;6.85;;;2.70;;
58015;SDS011;43809;52.110;20.964;2024-03-17T10:23:30;5.78;;;2.65;;
58015;SDS011;43809;52.110;20.964;2024-03-17T10:27:56;4.28;;;2.70;;
58015;SDS011;43809;52.110;20.964;2024-03-17T10:29:59;4.72;;;2.53;;
58015;SDS011;43809;52.110;20.964;2024-03-17T10:32:03;4.65;;;2.50;;
58015;SDS011;43809;52.110;20.964;2024-03-17T10:34:04;4.53;;;2.70;;
58015;SDS011;43809;52.110;20.964;2024-03-17T10:36:05;5.05;;;2.47;;
58015;SDS011;43809;52.110;20.964;2024-03-17T10:38:06;4.28;;;2.50;;
58015;SDS011;43809;52.110;20.964;2024-03-17T10:40:07;4.40;;;2.67;;
58015;SDS011;43809;52.110;20.964;2024-03-17T10:42:12;4.97;;;2.60;;
58015;SDS011;43809;52.110;20.964;2024-03-17T10:44:18;5.05;;;2.67;;
58015;SDS011;43809;52.110;20.964;2024-03-17T10:46:18;3.83;;;2.45;;
58015;SDS011;43809;52.110;20.964;2024-03-17T10:57:53;4.35;;;2.65;;
58015;SDS011;43809;52.110;20.964;2024-03-17T10:59:58;3.35;;;2.33;;
58015;SDS011;43809;52.110;20.964;2024-03-17T11:01:59;3.38;;;2.20;;
58015;SDS011;43809;52.110;20.964;2024-03-17T11:04:01;3.65;;;2.30;;
58015;SDS011;43809;52.110;20.964;2024-03-17T11:06:05;4.80;;;2.67;;
58015;SDS011;43809;52.110;20.964;2024-03-17T11:08:06;4.30;;;2.47;;
58015;SDS011;43809;52.110;20.964;2024-03-17T11:12:48;4.13;;;2.20;;
58015;SDS011;43809;52.110;20.964;2024-03-17T11:14:49;4.38;;;2.75;;
58015;SDS011;43809;52.110;20.964;2024-03-17T11:17:18;4.45;;;2.47;;
58015;SDS011;43809;52.110;20.964;2024-03-17T11:19:18;3.67;;;2.58;;
58015;SDS011;43809;52.110;20.964;2024-03-17T11:21:20;3.13;;;2.35;;
58015;SDS011;43809;52.110;20.964;2024-03-17T11:23:27;3.93;;;2.47;;
58015;SDS011;43809;52.110;20.964;2024-03-17T11:25:39;2.72;;;2.30;;
58015;SDS011;43809;52.110;20.964;2024-03-17T11:27:40;4.15;;;2.20;;
58015;SDS011;43809;52.110;20.964;2024-03-17T11:29:41;2.97;;;2.10;;
58015;SDS011;43809;52.110;20.964;2024-03-17T11:31:43;4.30;;;2.50;;
58015;SDS011;43809;52.110;20.964;2024-03-17T11:39:45;3.92;;;2.38;;
58015;SDS011;43809;52.110;20.964;2024-03-17T11:43:42;2.97;;;2.03;;
58015;SDS011;43809;52.110;20.964;2024-03-17T11:45:44;3.13;;;2.20;;
58015;SDS011;43809;52.110;20.964;2024-03-17T11:53:33;3.35;;;2.30;;
58015;SDS011;43809;52.110;20.964;2024-03-17T11:55:34;2.72;;;2.03;;
58015;SDS011;43809;52.110;20.964;2024-03-17T12:03:32;3.97;;;2.80;;
58015;SDS011;43809;52.110;20.964;2024-03-17T12:05:33;2.90;;;2.00;;
58015;SDS011;43809;52.110;20.964;2024-03-17T12:09:55;2.58;;;1.90;;
58015;SDS011;43809;52.110;20.964;2024-03-17T12:12:01;2.53;;;1.70;;
58015;SDS011;43809;52.110;20.964;2024-03-17T12:14:36;2.28;;;1.70;;
58015;SDS011;43809;52.110;20.964;2024-03-17T12:16:29;1.70;;;1.40;;
58015;SDS011;43809;52.110;20.964;2024-03-17T12:18:29;2.40;;;1.80;;
58015;SDS011;43809;52.110;20.964;2024-03-17T12:20:36;5.88;;;2.97;;
58015;SDS011;43809;52.110;20.964;2024-03-17T12:22:36;3.03;;;2.30;;
58015;SDS011;43809;52.110;20.964;2024-03-17T12:24:37;2.10;;;1.90;;
58015;SDS011;43809;52.110;20.964;2024-03-17T12:26:38;2.30;;;2.10;;
58015;SDS011;43809;52.110;20.964;2024-03-17T12:28:39;2.47;;;2.28;;
58015;SDS011;43809;52.110;20.964;2024-03-17T12:30:39;2.75;;;2.00;;
58015;SDS011;43809;52.110;20.964;2024-03-17T12:32:53;1.77;;;1.67;;
58015;SDS011;43809;52.110;20.964;2024-03-17T12:34:54;1.80;;;1.42;;
58015;SDS011;43809;52.110;20.964;2024-03-17T12:36:56;2.03;;;1.70;;
58015;SDS011;43809;52.110;20.964;2024-03-17T12:39:09;3.13;;;1.80;;
58015;SDS011;43809;52.110;20.964;2024-03-17T12:41:17;2.58;;;1.83;;
58015;SDS011;43809;52.110;20.964;2024-03-17T12:43:18;2.05;;;1.73;;
58015;SDS011;43809;52.110;20.964;2024-03-17T12:45:19;1.60;;;1.40;;
58015;SDS011;43809;52.110;20.964;2024-03-17T12:47:20;2.50;;;2.15;;
58015;SDS011;43809;52.110;20.964;2024-03-17T12:49:22;3.65;;;2.17;;
58015;SDS011;43809;52.110;20.964;2024-03-17T12:51:25;3.05;;;2.10;;
58015;SDS011;43809;52.110;20.964;2024-03-17T12:59:46;2.40;;;2.20;;
58015;SDS011;43809;52.110;20.964;2024-03-17T13:02:08;2.13;;;2.03;;
58015;SDS011;43809;52.110;20.964;2024-03-17T13:04:10;2.65;;;2.35;;
58015;SDS011;43809;52.110;20.964;2024-03-17T13:06:21;3.17;;;2.63;;
58015;SDS011;43809;52.110;20.964;2024-03-17T13:08:24;2.35;;;2.10;;
58015;SDS011;43809;52.110;20.964;2024-03-17T13:10:25;3.35;;;2.38;;
58015;SDS011;43809;52.110;20.964;2024-03-17T13:12:26;3.55;;;2.40;;
58015;SDS011;43809;52.110;20.964;2024-03-17T13:14:27;3.70;;;2.25;;
58015;SDS011;43809;52.110;20.964;2024-03-17T13:16:28;2.20;;;2.00;;
58015;SDS011;43809;52.110;20.964;2024-03-17T13:18:30;3.08;;;2.15;;
58015;SDS011;43809;52.110;20.964;2024-03-17T13:20:31;2.38;;;1.85;;
58015;SDS011;43809;52.110;20.964;2024-03-17T13:25:15;3.13;;;2.38;;
58015;SDS011;43809;52.110;20.964;2024-03-17T13:27:16;2.75;;;2.10;;
58015;SDS011;43809;52.110;20.964;2024-03-17T13:29:17;2.75;;;1.90;;
58015;SDS011;43809;52.110;20.964;2024-03-17T13:31:18;3.90;;;2.35;;
58015;SDS011;43809;52.110;20.964;2024-03-17T13:33:18;2.38;;;2.17;;
58015;SDS011;43809;52.110;20.964;2024-03-17T13:37:29;2.88;;;2.30;;
58015;SDS011;43809;52.110;20.964;2024-03-17T13:39:30;4.03;;;2.33;;
58015;SDS011;43809;52.110;20.964;2024-03-17T13:41:32;3.53;;;2.40;;
58015;SDS011;43809;52.110;20.964;2024-03-17T13:43:34;2.90;;;2.00;;
58015;SDS011;43809;52.110;20.964;2024-03-17T13:45:40;3.38;;;2.55;;
58015;SDS011;43809;52.110;20.964;2024-03-17T13:47:42;4.50;;;2.78;;
58015;SDS011;43809;52.110;20.964;2024-03-17T13:49:43;4.13;;;2.55;;
58015;SDS011;43809;52.110;20.964;2024-03-17T13:51:44;2.80;;;2.42;;
58015;SDS011;43809;52.110;20.964;2024-03-17T14:00:18;2.67;;;2.45;;
58015;SDS011;43809;52.110;20.964;2024-03-17T14:02:20;3.17;;;2.50;;
58015;SDS011;43809;52.110;20.964;2024-03-17T14:04:20;3.63;;;2.58;;
58015;SDS011;43809;52.110;20.964;2024-03-17T14:06:21;2.78;;;2.30;;
58015;SDS011;43809;52.110;20.964;2024-03-17T14:14:11;3.50;;;2.80;;
58015;SDS011;43809;52.110;20.964;2024-03-17T14:16:12;2.60;;;2.33;;
58015;SDS011;43809;52.110;20.964;2024-03-17T14:18:13;3.45;;;2.58;;
58015;SDS011;43809;52.110;20.964;2024-03-17T14:20:15;3.58;;;2.80;;
58015;SDS011;43809;52.110;20.964;2024-03-17T14:22:18;3.67;;;2.67;;
58015;SDS011;43809;52.110;20.964;2024-03-17T14:24:19;3.40;;;3.03;;
58015;SDS011;43809;52.110;20.964;2024-03-17T14:26:19;3.70;;;2.80;;
58015;SDS011;43809;52.110;20.964;2024-03-17T14:30:57;4.45;;;3.47;;
58015;SDS011;43809;52.110;20.964;2024-03-17T14:32:58;3.33;;;2.90;;
58015;SDS011;43809;52.110;20.964;2024-03-17T14:34:58;2.90;;;2.30;;
58015;SDS011;43809;52.110;20.964;2024-03-17T14:37:00;2.58;;;2.05;;
58015;SDS011;43809;52.110;20.964;2024-03-17T14:39:02;2.20;;;2.00;;
58015;SDS011;43809;52.110;20.964;2024-03-17T14:41:03;2.97;;;2.05;;
58015;SDS011;43809;52.110;20.964;2024-03-17T14:43:06;3.65;;;2.17;;
58015;SDS011;43809;52.110;20.964;2024-03-17T14:45:10;2.22;;;2.00;;
58015;SDS011;43809;52.110;20.964;2024-03-17T14:47:11;2.20;;;2.00;;
58015;SDS011;43809;52.110;20.964;2024-03-17T14:49:12;2.40;;;1.90;;
58015;SDS011;43809;52.110;20.964;2024-03-17T14:51:12;2.65;;;1.90;;
58015;SDS011;43809;52.110;20.964;2024-03-17T14:53:13;2.00;;;1.80;;
58015;SDS011;43809;52.110;20.964;2024-03-17T14:55:14;2.58;;;2.20;;